sensor_id;sensor_type;location;lat;lon;timestamp;pressure;altitude;pressure_sealevel;temperature;humidity
76653;BME280;65563;45.970;12.680;2023-03-01T00:00:12;101799.94;;;3.90;58.58
76653;BME280;65563;45.970;12.680;2023-03-01T00:01:13;101792.75;;;3.81;58.68
76653;BME280;65563;45.970;12.680;2023-03-01T00:02:14;101794.94;;;3.87;58.75
76653;BME280;65563;45.970;12.680;2023-03-01T00:03:14;101797.78;;;3.84;58.41
76653;BME280;65563;45.970;12.680;2023-03-01T00:04:14;101792.31;;;3.87;58.80
76653;BME280;65563;45.970;12.680;2023-03-01T00:05:14;101784.16;;;3.79;58.97
76653;BME280;65563;45.970;12.680;2023-03-01T00:06:15;101794.94;;;3.87;58.67
76653;BME280;65563;45.970;12.680;2023-03-01T00:07:15;101799.59;;;3.83;58.64
76653;BME280;65563;45.970;12.680;2023-03-01T00:08:15;101798.03;;;3.81;58.62
76653;BME280;65563;45.970;12.680;2023-03-01T00:09:15;101801.84;;;3.88;58.49
76653;BME280;65563;45.970;12.680;2023-03-01T00:10:16;101799.13;;;3.90;58.33
76653;BME280;65563;45.970;12.680;2023-03-01T00:11:20;101801.47;;;3.93;58.35
76653;BME280;65563;45.970;12.680;2023-03-01T00:12:20;101800.88;;;3.89;58.46
76653;BME280;65563;45.970;12.680;2023-03-01T00:13:21;101791.22;;;3.90;58.15
76653;BME280;65563;45.970;12.680;2023-03-01T00:14:21;101795.53;;;3.91;58.76
76653;BME280;65563;45.970;12.680;2023-03-01T00:15:21;101794.91;;;3.98;58.40
76653;BME280;65563;45.970;12.680;2023-03-01T00:16:23;101794.91;;;3.98;58.07
76653;BME280;65563;45.970;12.680;2023-03-01T00:17:24;101791.47;;;3.98;58.30
76653;BME280;65563;45.970;12.680;2023-03-01T00:18:24;101785.13;;;4.00;58.40
76653;BME280;65563;45.970;12.680;2023-03-01T00:19:24;101801.16;;;3.97;58.47
76653;BME280;65563;45.970;12.680;2023-03-01T00:20:24;101797.56;;;3.98;57.96
76653;BME280;65563;45.970;12.680;2023-03-01T00:21:25;101794.56;;;3.92;58.53
76653;BME280;65563;45.970;12.680;2023-03-01T00:22:26;101789.19;;;3.93;59.00
76653;BME280;65563;45.970;12.680;2023-03-01T00:23:26;101791.31;;;3.99;58.45
76653;BME280;65563;45.970;12.680;2023-03-01T00:24:26;101798.28;;;4.00;58.28
76653;BME280;65563;45.970;12.680;2023-03-01T00:25:27;101792.28;;;3.98;57.98
76653;BME280;65563;45.970;12.680;2023-03-01T00:26:27;101793.97;;;3.99;58.25
76653;BME280;65563;45.970;12.680;2023-03-01T00:27:27;101793.13;;;3.99;59.02
76653;BME280;65563;45.970;12.680;2023-03-01T00:28:27;101776.28;;;4.01;58.19
76653;BME280;65563;45.970;12.680;2023-03-01T00:29:27;101789.19;;;4.04;58.09
76653;BME280;65563;45.970;12.680;2023-03-01T00:30:28;101781.41;;;4.03;58.43
76653;BME280;65563;45.970;12.680;2023-03-01T00:31:28;101781.31;;;4.04;58.22
76653;BME280;65563;45.970;12.680;2023-03-01T00:32:29;101781.31;;;3.93;58.66
76653;BME280;65563;45.970;12.680;2023-03-01T00:33:29;101777.97;;;3.91;58.80
76653;BME280;65563;45.970;12.680;2023-03-01T00:34:29;101792.06;;;4.01;58.24
76653;BME280;65563;45.970;12.680;2023-03-01T00:35:29;101787.03;;;3.98;58.59
76653;BME280;65563;45.970;12.680;2023-03-01T00:36:31;101788.84;;;3.98;58.35
76653;BME280;65563;45.970;12.680;2023-03-01T00:37:31;101785.38;;;3.97;58.13
76653;BME280;65563;45.970;12.680;2023-03-01T00:38:34;101788.94;;;3.96;58.72
76653;BME280;65563;45.970;12.680;2023-03-01T00:39:34;101776.75;;;3.95;58.41
76653;BME280;65563;45.970;12.680;2023-03-01T00:40:35;101782.97;;;3.94;58.56
76653;BME280;65563;45.970;12.680;2023-03-01T00:41:35;101769.00;;;3.94;58.12
76653;BME280;65563;45.970;12.680;2023-03-01T00:42:35;101775.69;;;3.98;57.91
76653;BME280;65563;45.970;12.680;2023-03-01T00:43:35;101771.03;;;4.01;58.05
76653;BME280;65563;45.970;12.680;2023-03-01T00:44:36;101770.31;;;3.99;58.42
76653;BME280;65563;45.970;12.680;2023-03-01T00:45:36;101767.91;;;3.96;58.32
76653;BME280;65563;45.970;12.680;2023-03-01T00:46:36;101769.84;;;3.94;58.40
76653;BME280;65563;45.970;12.680;2023-03-01T00:47:36;101763.50;;;3.97;58.58
76653;BME280;65563;45.970;12.680;2023-03-01T00:48:37;101771.03;;;4.01;58.33
76653;BME280;65563;45.970;12.680;2023-03-01T00:49:37;101761.22;;;4.03;58.19
76653;BME280;65563;45.970;12.680;2023-03-01T00:50:37;101763.16;;;4.01;57.80
76653;BME280;65563;45.970;12.680;2023-03-01T00:51:37;101769.09;;;4.03;58.07
76653;BME280;65563;45.970;12.680;2023-03-01T00:52:37;101768.28;;;4.03;57.90
76653;BME280;65563;45.970;12.680;2023-03-01T00:53:38;101765.78;;;4.01;58.37
76653;BME280;65563;45.970;12.680;2023-03-01T00:54:38;101766.16;;;3.97;58.22
76653;BME280;65563;45.970;12.680;2023-03-01T00:55:38;101760.63;;;4.00;58.19
76653;BME280;65563;45.970;12.680;2023-03-01T00:56:38;101754.28;;;4.02;58.20
76653;BME280;65563;45.970;12.680;2023-03-01T00:57:38;101756.94;;;4.02;57.80
76653;BME280;65563;45.970;12.680;2023-03-01T00:58:38;101749.16;;;4.01;58.16
76653;BME280;65563;45.970;12.680;2023-03-01T00:59:39;101755.03;;;3.93;58.19
76653;BME280;65563;45.970;12.680;2023-03-01T01:00:39;101752.28;;;3.95;58.20
76653;BME280;65563;45.970;12.680;2023-03-01T01:01:39;101757.41;;;3.96;58.28
76653;BME280;65563;45.970;12.680;2023-03-01T01:02:39;101760.16;;;3.95;58.58
76653;BME280;65563;45.970;12.680;2023-03-01T01:03:39;101755.16;;;3.92;58.17
76653;BME280;65563;45.970;12.680;2023-03-01T01:04:40;101748.44;;;3.99;58.30
76653;BME280;65563;45.970;12.680;2023-03-01T01:05:40;101751.91;;;3.99;58.32
76653;BME280;65563;45.970;12.680;2023-03-01T01:06:41;101746.41;;;4.02;58.09
76653;BME280;65563;45.970;12.680;2023-03-01T01:07:42;101748.44;;;3.99;58.01
76653;BME280;65563;45.970;12.680;2023-03-01T01:08:42;101753.31;;;4.03;58.24
76653;BME280;65563;45.970;12.680;2023-03-01T01:09:42;101750.97;;;4.00;58.42
76653;BME280;65563;45.970;12.680;2023-03-01T01:10:43;101747.75;;;3.97;58.53
76653;BME280;65563;45.970;12.680;2023-03-01T01:11:47;101742.34;;;3.98;58.27
76653;BME280;65563;45.970;12.680;2023-03-01T01:12:48;101749.06;;;3.91;58.62
76653;BME280;65563;45.970;12.680;2023-03-01T01:13:48;101742.38;;;3.87;58.79
76653;BME280;65563;45.970;12.680;2023-03-01T01:14:48;101738.53;;;3.91;58.76
76653;BME280;65563;45.970;12.680;2023-03-01T01:15:48;101742.13;;;3.90;58.65
76653;BME280;65563;45.970;12.680;2023-03-01T01:16:49;101737.72;;;3.91;58.58
76653;BME280;65563;45.970;12.680;2023-03-01T01:17:49;101733.75;;;3.96;58.53
76653;BME280;65563;45.970;12.680;2023-03-01T01:18:49;101737.72;;;3.91;58.65
76653;BME280;65563;45.970;12.680;2023-03-01T01:19:49;101727.31;;;3.89;58.40
76653;BME280;65563;45.970;12.680;2023-03-01T01:20:50;101732.09;;;3.84;58.60
76653;BME280;65563;45.970;12.680;2023-03-01T01:21:50;101730.91;;;3.88;58.58
76653;BME280;65563;45.970;12.680;2023-03-01T01:22:50;101721.81;;;3.81;58.85
76653;BME280;65563;45.970;12.680;2023-03-01T01:23:50;101721.69;;;3.82;59.13
76653;BME280;65563;45.970;12.680;2023-03-01T01:24:50;101719.34;;;3.79;59.05
76653;BME280;65563;45.970;12.680;2023-03-01T01:25:50;101714.53;;;3.85;58.76
76653;BME280;65563;45.970;12.680;2023-03-01T01:26:50;101721.09;;;3.79;59.40
76653;BME280;65563;45.970;12.680;2023-03-01T01:27:51;101711.31;;;3.81;59.25
76653;BME280;65563;45.970;12.680;2023-03-01T01:28:51;101709.19;;;3.86;58.67
76653;BME280;65563;45.970;12.680;2023-03-01T01:29:52;101713.56;;;3.86;58.89
76653;BME280;65563;45.970;12.680;2023-03-01T01:30:52;101714.91;;;3.80;59.28
76653;BME280;65563;45.970;12.680;2023-03-01T01:31:53;101705.00;;;3.83;58.95
76653;BME280;65563;45.970;12.680;2023-03-01T01:32:53;101712.28;;;3.69;58.69
76653;BME280;65563;45.970;12.680;2023-03-01T01:33:53;101705.84;;;3.62;59.30
76653;BME280;65563;45.970;12.680;2023-03-01T01:34:53;101704.28;;;3.59;59.18
76653;BME280;65563;45.970;12.680;2023-03-01T01:35:54;101706.19;;;3.46;59.18
76653;BME280;65563;45.970;12.680;2023-03-01T01:36:54;101703.19;;;3.50;59.44
76653;BME280;65563;45.970;12.680;2023-03-01T01:37:54;101716.69;;;3.46;59.20
76653;BME280;65563;45.970;12.680;2023-03-01T01:38:54;101707.75;;;3.48;59.75
76653;BME280;65563;45.970;12.680;2023-03-01T01:39:54;101707.03;;;3.46;59.90
76653;BME280;65563;45.970;12.680;2023-03-01T01:40:54;101704.41;;;3.46;59.77
76653;BME280;65563;45.970;12.680;2023-03-01T01:41:55;101700.34;;;3.42;59.43
76653;BME280;65563;45.970;12.680;2023-03-01T01:42:55;101696.97;;;3.40;59.68
76653;BME280;65563;45.970;12.680;2023-03-01T01:44:12;101695.09;;;3.42;59.17
76653;BME280;65563;45.970;12.680;2023-03-01T01:46:30;101693.53;;;3.40;60.07
76653;BME280;65563;45.970;12.680;2023-03-01T01:47:30;101694.03;;;3.33;59.97
76653;BME280;65563;45.970;12.680;2023-03-01T01:48:37;101689.59;;;3.34;60.19
76653;BME280;65563;45.970;12.680;2023-03-01T01:50:55;101681.72;;;3.34;60.09
76653;BME280;65563;45.970;12.680;2023-03-01T01:52:18;101682.88;;;3.19;60.84
76653;BME280;65563;45.970;12.680;2023-03-01T01:53:17;101677.19;;;3.25;60.35
76653;BME280;65563;45.970;12.680;2023-03-01T01:54:30;101665.25;;;3.32;60.24
76653;BME280;65563;45.970;12.680;2023-03-01T01:55:31;101657.72;;;3.39;60.15
76653;BME280;65563;45.970;12.680;2023-03-01T01:56:31;101661.44;;;3.36;60.03
76653;BME280;65563;45.970;12.680;2023-03-01T01:57:33;101656.19;;;3.36;59.65
76653;BME280;65563;45.970;12.680;2023-03-01T01:58:35;101660.00;;;3.21;60.05
76653;BME280;65563;45.970;12.680;2023-03-01T01:59:36;101662.16;;;3.27;60.16
76653;BME280;65563;45.970;12.680;2023-03-01T02:00:37;101663.31;;;3.23;60.20
76653;BME280;65563;45.970;12.680;2023-03-01T02:01:38;101652.50;;;3.27;60.28
76653;BME280;65563;45.970;12.680;2023-03-01T02:02:38;101662.16;;;3.27;60.37
76653;BME280;65563;45.970;12.680;2023-03-01T02:03:39;101665.16;;;3.33;59.94
76653;BME280;65563;45.970;12.680;2023-03-01T02:04:40;101657.13;;;3.24;60.06
76653;BME280;65563;45.970;12.680;2023-03-01T02:07:04;101663.22;;;3.13;61.06
76653;BME280;65563;45.970;12.680;2023-03-01T02:08:06;101668.84;;;3.20;60.26
76653;BME280;65563;45.970;12.680;2023-03-01T02:09:10;101659.53;;;3.27;60.43
76653;BME280;65563;45.970;12.680;2023-03-01T02:10:12;101663.34;;;3.34;60.07
76653;BME280;65563;45.970;12.680;2023-03-01T02:11:12;101665.00;;;3.24;60.57
76653;BME280;65563;45.970;12.680;2023-03-01T02:12:14;101653.44;;;3.38;60.62
76653;BME280;65563;45.970;12.680;2023-03-01T02:13:15;101647.34;;;3.48;59.51
76653;BME280;65563;45.970;12.680;2023-03-01T02:14:15;101650.19;;;3.56;59.81
76653;BME280;65563;45.970;12.680;2023-03-01T02:15:15;101655.22;;;3.59;59.52
76653;BME280;65563;45.970;12.680;2023-03-01T02:16:16;101650.44;;;3.53;59.23
76653;BME280;65563;45.970;12.680;2023-03-01T02:17:17;101651.41;;;3.41;59.63
76653;BME280;65563;45.970;12.680;2023-03-01T02:18:18;101646.03;;;3.43;59.96
76653;BME280;65563;45.970;12.680;2023-03-01T02:19:23;101641.38;;;3.46;59.55
76653;BME280;65563;45.970;12.680;2023-03-01T02:20:33;101642.56;;;3.42;59.68
76653;BME280;65563;45.970;12.680;2023-03-01T02:21:38;101638.28;;;3.41;59.77
76653;BME280;65563;45.970;12.680;2023-03-01T02:22:41;101636.34;;;3.43;60.14
76653;BME280;65563;45.970;12.680;2023-03-01T02:23:43;101634.25;;;3.37;59.56
76653;BME280;65563;45.970;12.680;2023-03-01T02:24:47;101633.72;;;3.43;60.00
76653;BME280;65563;45.970;12.680;2023-03-01T02:26:51;101634.69;;;3.42;60.01
76653;BME280;65563;45.970;12.680;2023-03-01T02:28:05;101644.00;;;3.46;59.22
76653;BME280;65563;45.970;12.680;2023-03-01T02:29:08;101643.16;;;3.46;59.67
76653;BME280;65563;45.970;12.680;2023-03-01T02:30:08;101636.00;;;3.59;59.32
76653;BME280;65563;45.970;12.680;2023-03-01T02:31:09;101637.22;;;3.55;59.43
76653;BME280;65563;45.970;12.680;2023-03-01T02:32:10;101645.91;;;3.55;59.01
76653;BME280;65563;45.970;12.680;2023-03-01T02:33:11;101644.22;;;3.54;59.63
76653;BME280;65563;45.970;12.680;2023-03-01T02:34:13;101639.94;;;3.53;59.51
76653;BME280;65563;45.970;12.680;2023-03-01T02:35:14;101631.94;;;3.44;59.99
76653;BME280;65563;45.970;12.680;2023-03-01T02:36:17;101625.63;;;3.46;59.81
76653;BME280;65563;45.970;12.680;2023-03-01T02:37:18;101626.22;;;3.50;59.40
76653;BME280;65563;45.970;12.680;2023-03-01T02:38:19;101620.13;;;3.49;59.98
76653;BME280;65563;45.970;12.680;2023-03-01T02:39:33;101621.09;;;3.48;60.05
76653;BME280;65563;45.970;12.680;2023-03-01T02:40:34;101612.28;;;3.27;60.34
76653;BME280;65563;45.970;12.680;2023-03-01T02:41:37;101611.69;;;3.23;60.55
76653;BME280;65563;45.970;12.680;2023-03-01T02:42:45;101608.47;;;3.20;61.07
76653;BME280;65563;45.970;12.680;2023-03-01T02:43:45;101607.88;;;3.16;61.21
76653;BME280;65563;45.970;12.680;2023-03-01T02:44:46;101605.13;;;3.18;60.44
76653;BME280;65563;45.970;12.680;2023-03-01T02:45:49;101600.81;;;3.17;61.15
76653;BME280;65563;45.970;12.680;2023-03-01T02:46:51;101597.25;;;3.18;61.26
76653;BME280;65563;45.970;12.680;2023-03-01T02:47:55;101591.75;;;3.21;60.72
76653;BME280;65563;45.970;12.680;2023-03-01T02:48:56;101595.94;;;3.23;60.40
76653;BME280;65563;45.970;12.680;2023-03-01T02:49:57;101591.75;;;3.32;60.26
76653;BME280;65563;45.970;12.680;2023-03-01T02:54:24;101589.72;;;3.35;60.24
76653;BME280;65563;45.970;12.680;2023-03-01T02:55:25;101592.81;;;3.41;59.89
76653;BME280;65563;45.970;12.680;2023-03-01T02:56:26;101590.31;;;3.39;60.50
76653;BME280;65563;45.970;12.680;2023-03-01T02:57:26;101581.72;;;3.48;59.81
76653;BME280;65563;45.970;12.680;2023-03-01T02:58:27;101581.81;;;3.47;59.81
76653;BME280;65563;45.970;12.680;2023-03-01T02:59:29;101578.84;;;3.40;59.87
76653;BME280;65563;45.970;12.680;2023-03-01T03:00:40;101583.75;;;3.45;60.04
76653;BME280;65563;45.970;12.680;2023-03-01T03:01:42;101576.09;;;3.42;59.78
76653;BME280;65563;45.970;12.680;2023-03-01T03:02:42;101569.06;;;3.42;60.49
76653;BME280;65563;45.970;12.680;2023-03-01T03:03:42;101571.44;;;3.45;60.15
76653;BME280;65563;45.970;12.680;2023-03-01T03:04:42;101567.75;;;3.48;59.22
76653;BME280;65563;45.970;12.680;2023-03-01T03:05:42;101571.06;;;3.50;59.28
76653;BME280;65563;45.970;12.680;2023-03-01T03:06:49;101573.59;;;3.51;59.87
76653;BME280;65563;45.970;12.680;2023-03-01T03:07:50;101573.94;;;3.58;58.98
76653;BME280;65563;45.970;12.680;2023-03-01T03:08:51;101572.13;;;3.47;59.85
76653;BME280;65563;45.970;12.680;2023-03-01T03:09:51;101570.09;;;3.62;59.16
76653;BME280;65563;45.970;12.680;2023-03-01T03:10:51;101565.09;;;3.59;59.93
76653;BME280;65563;45.970;12.680;2023-03-01T03:11:51;101564.03;;;3.62;58.90
76653;BME280;65563;45.970;12.680;2023-03-01T03:12:52;101564.59;;;3.65;59.31
76653;BME280;65563;45.970;12.680;2023-03-01T03:13:53;101563.28;;;3.59;59.03
76653;BME280;65563;45.970;12.680;2023-03-01T03:14:53;101564.03;;;3.62;59.72
76653;BME280;65563;45.970;12.680;2023-03-01T03:15:56;101565.78;;;3.61;59.04
76653;BME280;65563;45.970;12.680;2023-03-01T03:16:56;101563.28;;;3.59;59.03
76653;BME280;65563;45.970;12.680;2023-03-01T03:17:57;101567.59;;;3.61;59.56
76653;BME280;65563;45.970;12.680;2023-03-01T03:18:58;101566.16;;;3.56;59.59
76653;BME280;65563;45.970;12.680;2023-03-01T03:19:58;101572.00;;;3.60;59.40
76653;BME280;65563;45.970;12.680;2023-03-01T03:20:58;101573.81;;;3.59;59.48
76653;BME280;65563;45.970;12.680;2023-03-01T03:21:58;101574.19;;;3.55;59.46
76653;BME280;65563;45.970;12.680;2023-03-01T03:22:58;101574.53;;;3.50;60.09
76653;BME280;65563;45.970;12.680;2023-03-01T03:23:59;101576.91;;;3.53;60.15
76653;BME280;65563;45.970;12.680;2023-03-01T03:24:59;101573.06;;;3.57;59.88
76653;BME280;65563;45.970;12.680;2023-03-01T03:26:00;101571.03;;;3.61;59.43
76653;BME280;65563;45.970;12.680;2023-03-01T03:27:00;101559.22;;;3.67;59.73
76653;BME280;65563;45.970;12.680;2023-03-01T03:28:00;101560.44;;;3.63;59.78
76653;BME280;65563;45.970;12.680;2023-03-01T03:29:00;101561.97;;;3.65;59.59
76653;BME280;65563;45.970;12.680;2023-03-01T03:30:00;101559.25;;;3.55;59.08
76653;BME280;65563;45.970;12.680;2023-03-01T03:31:01;101561.53;;;3.49;59.73
76653;BME280;65563;45.970;12.680;2023-03-01T03:32:01;101555.31;;;3.50;59.22
76653;BME280;65563;45.970;12.680;2023-03-01T03:33:01;101555.31;;;3.50;59.22
76653;BME280;65563;45.970;12.680;2023-03-01T03:34:01;101549.97;;;3.51;59.63
76653;BME280;65563;45.970;12.680;2023-03-01T03:35:03;101547.78;;;3.56;59.18
76653;BME280;65563;45.970;12.680;2023-03-01T03:36:03;101554.00;;;3.55;59.62
76653;BME280;65563;45.970;12.680;2023-03-01T03:37:04;101548.50;;;3.58;58.95
76653;BME280;65563;45.970;12.680;2023-03-01T03:38:05;101551.47;;;3.54;58.93
76653;BME280;65563;45.970;12.680;2023-03-01T03:39:05;101548.75;;;3.55;59.07
76653;BME280;65563;45.970;12.680;2023-03-01T03:40:06;101535.50;;;3.46;59.67
76653;BME280;65563;45.970;12.680;2023-03-01T03:41:07;101538.97;;;3.46;59.25
76653;BME280;65563;45.970;12.680;2023-03-01T03:42:07;101541.59;;;3.46;59.07
76653;BME280;65563;45.970;12.680;2023-03-01T03:43:08;101543.53;;;3.44;59.20
76653;BME280;65563;45.970;12.680;2023-03-01T03:44:09;101542.44;;;3.35;59.74
76653;BME280;65563;45.970;12.680;2023-03-01T03:45:09;101538.53;;;3.41;59.67
76653;BME280;65563;45.970;12.680;2023-03-01T03:46:10;101537.44;;;3.32;59.70
76653;BME280;65563;45.970;12.680;2023-03-01T03:47:10;101541.13;;;3.30;59.44
76653;BME280;65563;45.970;12.680;2023-03-01T03:48:10;101531.59;;;3.29;59.66
76653;BME280;65563;45.970;12.680;2023-03-01T03:49:10;101540.19;;;3.31;59.87
76653;BME280;65563;45.970;12.680;2023-03-01T03:50:11;101534.38;;;3.27;60.06
76653;BME280;65563;45.970;12.680;2023-03-01T03:51:15;101538.06;;;3.25;59.95
76653;BME280;65563;45.970;12.680;2023-03-01T03:52:16;101531.84;;;3.26;59.78
76653;BME280;65563;45.970;12.680;2023-03-01T03:53:16;101538.28;;;3.33;59.61
76653;BME280;65563;45.970;12.680;2023-03-01T03:54:17;101534.00;;;3.32;59.87
76653;BME280;65563;45.970;12.680;2023-03-01T03:55:17;101533.53;;;3.27;60.03
76653;BME280;65563;45.970;12.680;2023-03-01T03:56:17;101533.41;;;3.28;59.99
76653;BME280;65563;45.970;12.680;2023-03-01T03:57:17;101528.63;;;3.33;60.44
76653;BME280;65563;45.970;12.680;2023-03-01T03:58:18;101532.19;;;3.32;60.01
76653;BME280;65563;45.970;12.680;2023-03-01T03:59:18;101536.63;;;3.32;60.57
76653;BME280;65563;45.970;12.680;2023-03-01T04:00:19;101533.28;;;3.19;60.82
76653;BME280;65563;45.970;12.680;2023-03-01T04:01:20;101528.28;;;3.27;60.85
76653;BME280;65563;45.970;12.680;2023-03-01T04:02:20;101530.88;;;3.38;60.28
76653;BME280;65563;45.970;12.680;2023-03-01T04:03:20;101527.53;;;3.36;60.73
76653;BME280;65563;45.970;12.680;2023-03-01T04:04:20;101526.47;;;3.39;61.25
76653;BME280;65563;45.970;12.680;2023-03-01T04:05:20;101534.47;;;3.37;61.20
76653;BME280;65563;45.970;12.680;2023-03-01T04:06:20;101523.97;;;3.37;61.30
76653;BME280;65563;45.970;12.680;2023-03-01T04:07:21;101518.72;;;3.37;61.56
76653;BME280;65563;45.970;12.680;2023-03-01T04:08:21;101518.72;;;3.26;61.34
76653;BME280;65563;45.970;12.680;2023-03-01T04:09:22;101519.66;;;3.36;61.64
76653;BME280;65563;45.970;12.680;2023-03-01T04:10:22;101517.75;;;3.38;61.12
76653;BME280;65563;45.970;12.680;2023-03-01T04:11:22;101515.72;;;3.42;61.23
76653;BME280;65563;45.970;12.680;2023-03-01T04:12:22;101517.50;;;3.41;61.01
76653;BME280;65563;45.970;12.680;2023-03-01T04:13:22;101511.28;;;3.42;61.08
76653;BME280;65563;45.970;12.680;2023-03-01T04:14:22;101508.22;;;3.37;61.07
76653;BME280;65563;45.970;12.680;2023-03-01T04:15:23;101517.13;;;3.46;60.92
76653;BME280;65563;45.970;12.680;2023-03-01T04:16:24;101512.47;;;3.49;60.87
76653;BME280;65563;45.970;12.680;2023-03-01T04:17:24;101518.44;;;3.51;60.63
76653;BME280;65563;45.970;12.680;2023-03-01T04:18:24;101512.47;;;3.49;60.86
76653;BME280;65563;45.970;12.680;2023-03-01T04:19:24;101518.22;;;3.43;61.07
76653;BME280;65563;45.970;12.680;2023-03-01T04:20:26;101513.19;;;3.51;60.94
76653;BME280;65563;45.970;12.680;2023-03-01T04:21:26;101510.91;;;3.58;60.43
76653;BME280;65563;45.970;12.680;2023-03-01T04:22:26;101504.78;;;3.57;60.29
76653;BME280;65563;45.970;12.680;2023-03-01T04:23:26;101513.16;;;3.63;60.51
76653;BME280;65563;45.970;12.680;2023-03-01T04:24:27;101508.88;;;3.62;60.04
76653;BME280;65563;45.970;12.680;2023-03-01T04:25:27;101504.88;;;3.67;60.25
76653;BME280;65563;45.970;12.680;2023-03-01T04:26:27;101504.88;;;3.67;60.71
76653;BME280;65563;45.970;12.680;2023-03-01T04:27:27;101507.66;;;3.66;60.69
76653;BME280;65563;45.970;12.680;2023-03-01T04:28:28;101504.78;;;3.69;60.56
76653;BME280;65563;45.970;12.680;2023-03-01T04:29:29;101509.06;;;3.70;60.25
76653;BME280;65563;45.970;12.680;2023-03-01T04:30:29;101508.59;;;3.65;60.70
76653;BME280;65563;45.970;12.680;2023-03-01T04:31:29;101512.13;;;3.75;59.66
76653;BME280;65563;45.970;12.680;2023-03-01T04:32:29;101507.41;;;3.69;60.34
76653;BME280;65563;45.970;12.680;2023-03-01T04:33:30;101510.72;;;3.71;60.43
76653;BME280;65563;45.970;12.680;2023-03-01T04:34:30;101507.47;;;3.78;59.86
76653;BME280;65563;45.970;12.680;2023-03-01T04:35:30;101505.19;;;3.85;59.02
76653;BME280;65563;45.970;12.680;2023-03-01T04:36:31;101505.66;;;3.90;58.97
76653;BME280;65563;45.970;12.680;2023-03-01T04:37:31;101504.44;;;3.94;59.15
76653;BME280;65563;45.970;12.680;2023-03-01T04:38:31;101495.81;;;3.92;59.67
76653;BME280;65563;45.970;12.680;2023-03-01T04:39:31;101500.00;;;3.95;59.23
76653;BME280;65563;45.970;12.680;2023-03-01T04:40:31;101501.88;;;4.04;58.82
76653;BME280;65563;45.970;12.680;2023-03-01T04:41:32;101492.63;;;4.10;58.66
76653;BME280;65563;45.970;12.680;2023-03-01T04:42:32;101500.50;;;4.10;58.65
76653;BME280;65563;45.970;12.680;2023-03-01T04:43:32;101504.13;;;4.09;58.85
76653;BME280;65563;45.970;12.680;2023-03-01T04:44:32;101500.84;;;4.16;58.83
76653;BME280;65563;45.970;12.680;2023-03-01T04:45:32;101505.84;;;4.19;58.70
76653;BME280;65563;45.970;12.680;2023-03-01T04:46:33;101501.31;;;4.21;58.57
76653;BME280;65563;45.970;12.680;2023-03-01T04:47:33;101502.81;;;4.24;58.24
76653;BME280;65563;45.970;12.680;2023-03-01T04:48:33;101509.06;;;4.23;58.08
76653;BME280;65563;45.970;12.680;2023-03-01T04:49:33;101498.47;;;4.34;57.79
76653;BME280;65563;45.970;12.680;2023-03-01T04:50:33;101501.09;;;4.34;57.99
76653;BME280;65563;45.970;12.680;2023-03-01T04:51:34;101500.84;;;4.37;57.61
76653;BME280;65563;45.970;12.680;2023-03-01T04:52:34;101498.19;;;4.37;57.96
76653;BME280;65563;45.970;12.680;2023-03-01T04:53:35;101488.97;;;4.43;57.14
76653;BME280;65563;45.970;12.680;2023-03-01T04:54:35;101492.28;;;4.45;57.52
76653;BME280;65563;45.970;12.680;2023-03-01T04:55:35;101496.16;;;4.41;57.76
76653;BME280;65563;45.970;12.680;2023-03-01T04:56:35;101492.13;;;4.37;57.87
76653;BME280;65563;45.970;12.680;2023-03-01T04:57:36;101495.06;;;4.43;57.41
76653;BME280;65563;45.970;12.680;2023-03-01T04:58:36;101501.47;;;4.50;57.55
76653;BME280;65563;45.970;12.680;2023-03-01T04:59:36;101494.16;;;4.54;57.24
76653;BME280;65563;45.970;12.680;2023-03-01T05:00:36;101495.13;;;4.53;57.35
76653;BME280;65563;45.970;12.680;2023-03-01T05:01:37;101493.31;;;4.53;57.12
76653;BME280;65563;45.970;12.680;2023-03-01T05:02:37;101494.97;;;4.54;57.42
76653;BME280;65563;45.970;12.680;2023-03-01T05:03:37;101490.44;;;4.57;57.22
76653;BME280;65563;45.970;12.680;2023-03-01T05:04:37;101496.53;;;4.57;57.21
76653;BME280;65563;45.970;12.680;2023-03-01T05:05:39;101493.91;;;4.67;56.96
76653;BME280;65563;45.970;12.680;2023-03-01T05:06:39;101493.66;;;4.70;56.75
76653;BME280;65563;45.970;12.680;2023-03-01T05:07:39;101496.03;;;4.73;56.78
76653;BME280;65563;45.970;12.680;2023-03-01T05:08:40;101489.38;;;4.69;56.98
76653;BME280;65563;45.970;12.680;2023-03-01T05:09:40;101496.47;;;4.78;56.56
76653;BME280;65563;45.970;12.680;2023-03-01T05:10:41;101493.84;;;4.78;57.04
76653;BME280;65563;45.970;12.680;2023-03-01T05:11:41;101489.84;;;4.84;56.45
76653;BME280;65563;45.970;12.680;2023-03-01T05:12:41;101489.56;;;4.87;56.50
76653;BME280;65563;45.970;12.680;2023-03-01T05:13:41;101491.94;;;4.90;56.29
76653;BME280;65563;45.970;12.680;2023-03-01T05:14:42;101489.88;;;4.93;56.39
76653;BME280;65563;45.970;12.680;2023-03-01T05:15:42;101493.22;;;4.95;55.98
76653;BME280;65563;45.970;12.680;2023-03-01T05:16:42;101508.28;;;4.93;56.46
76653;BME280;65563;45.970;12.680;2023-03-01T05:17:42;101502.06;;;4.94;56.57
76653;BME280;65563;45.970;12.680;2023-03-01T05:18:42;101502.25;;;5.02;55.88
76653;BME280;65563;45.970;12.680;2023-03-01T05:19:42;101512.06;;;5.00;56.06
76653;BME280;65563;45.970;12.680;2023-03-01T05:20:42;101511.94;;;5.02;55.94
76653;BME280;65563;45.970;12.680;2023-03-01T05:21:43;101498.09;;;5.10;56.24
76653;BME280;65563;45.970;12.680;2023-03-01T05:22:43;101493.78;;;5.09;56.02
76653;BME280;65563;45.970;12.680;2023-03-01T05:23:44;101498.22;;;5.08;55.99
76653;BME280;65563;45.970;12.680;2023-03-01T05:24:44;101498.78;;;5.12;55.62
76653;BME280;65563;45.970;12.680;2023-03-01T05:25:44;101489.22;;;5.11;55.59
76653;BME280;65563;45.970;12.680;2023-03-01T05:26:44;101488.00;;;5.15;55.40